createdAt,value
2018-12-19T00:00:12.751Z,96.16
2018-12-19T00:02:41.764Z,96.23
2018-12-19T00:05:11.000Z,95.79
2018-12-19T00:07:39.993Z,95.20
2018-12-19T00:10:08.987Z,94.85
2018-12-19T00:12:37.947Z,93.84
2018-12-19T00:15:07.088Z,94.44
2018-12-19T00:17:36.169Z,93.86
2018-12-19T00:20:06.356Z,94.30
2018-12-19T00:22:35.301Z,94.52
2018-12-19T00:25:05.171Z,94.28
2018-12-19T00:27:34.073Z,94.13
2018-12-19T00:30:03.003Z,94.10
2018-12-19T00:32:31.895Z,94.20
2018-12-19T00:35:00.884Z,93.71
2018-12-19T00:37:29.828Z,93.30
2018-12-19T00:39:58.748Z,93.36
2018-12-19T00:42:27.759Z,95.01
2018-12-19T00:44:56.690Z,94.14
2018-12-19T00:47:25.929Z,93.81
2018-12-19T00:49:54.838Z,94.21
2018-12-19T00:52:23.783Z,94.02
2018-12-19T00:54:53.225Z,94.24
2018-12-19T00:57:22.125Z,93.84
2018-12-19T00:59:51.143Z,94.94
2018-12-19T01:02:20.121Z,95.20
2018-12-19T01:04:49.035Z,95.64
2018-12-19T01:07:18.070Z,95.33
2018-12-19T01:09:47.218Z,94.26
2018-12-19T01:12:16.176Z,94.82
2018-12-19T01:14:45.059Z,94.46
2018-12-19T01:17:14.052Z,94.61
2018-12-19T01:19:42.984Z,94.93
2018-12-19T01:22:11.960Z,94.54
2018-12-19T01:24:41.136Z,94.52
2018-12-19T01:27:10.126Z,94.70
2018-12-19T01:29:39.090Z,94.96
2018-12-19T01:32:08.060Z,95.12
2018-12-19T01:34:37.003Z,95.60
2018-12-19T01:37:06.017Z,95.15
2018-12-19T01:39:34.926Z,94.86
2018-12-19T01:42:04.015Z,94.84
2018-12-19T01:44:32.973Z,94.72
2018-12-19T01:47:01.996Z,94.80
2018-12-19T01:49:30.974Z,94.62
2018-12-19T01:51:59.903Z,94.03
2018-12-19T01:54:28.877Z,95.91
2018-12-19T01:56:57.787Z,95.85
2018-12-19T01:59:26.689Z,95.44
2018-12-19T02:01:55.646Z,95.54
2018-12-19T02:04:24.592Z,94.85
2018-12-19T02:06:53.586Z,95.57
2018-12-19T02:09:28.749Z,95.57
2018-12-19T02:11:53.443Z,95.75
2018-12-19T02:14:22.399Z,96.12
2018-12-19T02:16:51.334Z,96.43
2018-12-19T02:19:20.283Z,96.21
2018-12-19T02:21:49.288Z,96.93
2018-12-19T02:24:18.935Z,96.22
2018-12-19T02:26:47.909Z,96.53
2018-12-19T02:29:16.919Z,96.64
2018-12-19T02:31:45.965Z,96.81
2018-12-19T02:34:15.060Z,96.49
2018-12-19T02:36:43.991Z,96.67
2018-12-19T02:39:12.955Z,95.66
2018-12-19T02:41:41.891Z,95.78
2018-12-19T02:44:10.788Z,96.38
2018-12-19T02:46:39.684Z,95.87
2018-12-19T02:49:08.705Z,95.87
2018-12-19T02:51:37.599Z,96.14
2018-12-19T02:54:06.574Z,96.37
2018-12-19T02:56:35.509Z,96.41
2018-12-19T02:59:04.493Z,95.65
2018-12-19T03:01:33.439Z,96.57
2018-12-19T03:04:02.360Z,96.34
2018-12-19T03:06:31.328Z,96.51
2018-12-19T03:09:00.222Z,95.95
2018-12-19T03:11:29.149Z,95.69
2018-12-19T03:13:58.157Z,95.82
2018-12-19T03:16:27.394Z,95.50
2018-12-19T03:18:56.332Z,95.29
2018-12-19T03:21:25.220Z,95.15
2018-12-19T03:23:54.221Z,95.25
2018-12-19T03:26:23.183Z,95.56
2018-12-19T03:28:52.083Z,95.50
2018-12-19T03:31:20.981Z,96.24
2018-12-19T03:33:49.878Z,95.85
2018-12-19T03:36:18.876Z,96.88
2018-12-19T03:38:47.789Z,96.72
2018-12-19T03:41:16.809Z,96.48
2018-12-19T03:43:45.745Z,96.06
2018-12-19T03:46:14.719Z,96.36
2018-12-19T03:48:48.972Z,95.97
2018-12-19T03:51:17.933Z,96.17
2018-12-19T03:53:46.862Z,96.16
2018-12-19T03:56:15.789Z,95.25
2018-12-19T03:58:44.742Z,95.80
2018-12-19T04:01:13.665Z,95.37
2018-12-19T04:03:42.599Z,95.92
2018-12-19T04:06:11.550Z,95.98
2018-12-19T04:08:40.455Z,96.08
2018-12-19T04:11:09.448Z,96.11
2018-12-19T04:13:38.408Z,95.87
2018-12-19T04:16:07.341Z,96.17
2018-12-19T04:18:36.329Z,95.71
2018-12-19T04:21:05.260Z,96.33
2018-12-19T04:23:34.193Z,95.72
2018-12-19T04:26:03.142Z,95.53
2018-12-19T04:28:32.212Z,95.77
2018-12-19T04:31:01.151Z,95.76
2018-12-19T04:33:30.143Z,95.20
2018-12-19T04:35:59.388Z,94.24
2018-12-19T04:38:28.475Z,94.43
2018-12-19T04:40:57.400Z,94.55
2018-12-19T04:43:26.373Z,93.82
2018-12-19T04:45:55.645Z,94.16
2018-12-19T04:48:24.608Z,94.03
2018-12-19T04:50:53.547Z,94.40
2018-12-19T04:53:22.437Z,94.23
2018-12-19T04:55:51.431Z,93.99
2018-12-19T04:58:20.373Z,94.13
2018-12-19T05:00:49.287Z,94.32
2018-12-19T05:03:18.197Z,94.77
2018-12-19T05:05:47.083Z,94.17
2018-12-19T05:08:16.023Z,94.27
2018-12-19T05:10:44.993Z,94.76
2018-12-19T05:13:13.910Z,93.54
2018-12-19T05:15:42.829Z,94.00
2018-12-19T05:18:11.781Z,94.29
2018-12-19T05:20:40.734Z,94.03
2018-12-19T05:23:09.679Z,94.06
2018-12-19T05:25:38.747Z,93.61
2018-12-19T05:28:07.986Z,94.16
2018-12-19T05:30:36.891Z,93.87
2018-12-19T05:33:05.817Z,93.99
2018-12-19T05:35:34.792Z,94.10
2018-12-19T05:38:03.755Z,94.01
2018-12-19T05:40:32.677Z,93.94
2018-12-19T05:43:01.669Z,94.06
2018-12-19T05:45:30.679Z,94.24
2018-12-19T05:47:59.601Z,94.04
2018-12-19T05:50:29.317Z,94.07
2018-12-19T05:52:58.219Z,94.26
2018-12-19T05:55:27.196Z,93.87
2018-12-19T05:57:56.089Z,93.47
2018-12-19T06:00:25.037Z,93.84
2018-12-19T06:02:54.386Z,94.28
2018-12-19T06:05:23.358Z,94.44
2018-12-19T06:07:52.504Z,94.02
2018-12-19T06:10:26.194Z,93.84
2018-12-19T06:12:55.182Z,94.23
2018-12-19T06:15:24.114Z,93.55
2018-12-19T06:17:53.084Z,94.52
2018-12-19T06:20:22.030Z,94.17
2018-12-19T06:22:50.942Z,93.58
2018-12-19T06:25:19.907Z,92.84
2018-12-19T06:27:49.022Z,94.21
2018-12-19T06:30:18.453Z,94.14
2018-12-19T06:32:47.582Z,93.84
2018-12-19T06:35:16.524Z,94.08
2018-12-19T06:37:45.655Z,93.93
2018-12-19T06:40:14.599Z,94.21
2018-12-19T06:42:43.505Z,94.05
2018-12-19T06:45:12.516Z,94.49
2018-12-19T06:47:41.446Z,93.45
2018-12-19T06:50:10.701Z,94.19
2018-12-19T06:52:39.656Z,93.59
2018-12-19T06:55:08.691Z,94.21
2018-12-19T06:57:37.722Z,94.14
2018-12-19T07:00:07.265Z,94.03
2018-12-19T07:02:36.613Z,93.89
2018-12-19T07:05:05.677Z,94.56
2018-12-19T07:07:34.674Z,93.35
2018-12-19T07:10:03.968Z,93.75
2018-12-19T07:12:32.970Z,93.03
2018-12-19T07:15:02.043Z,93.23
2018-12-19T07:17:30.982Z,93.07
2018-12-19T07:20:00.077Z,93.28
2018-12-19T07:22:29.017Z,92.86
2018-12-19T07:24:57.998Z,92.85
2018-12-19T07:27:27.005Z,93.26
2018-12-19T07:29:55.984Z,93.88
2018-12-19T07:32:25.036Z,93.40
2018-12-19T07:34:54.031Z,93.39
2018-12-19T07:37:22.956Z,92.91
2018-12-19T07:39:51.888Z,92.98
2018-12-19T07:42:20.891Z,92.83
2018-12-19T07:44:49.867Z,93.39
2018-12-19T07:49:56.997Z,92.77
2018-12-19T07:52:27.275Z,92.62
2018-12-19T07:54:56.692Z,93.26
2018-12-19T07:57:25.748Z,93.81
2018-12-19T07:59:54.872Z,93.34
2018-12-19T08:02:23.863Z,93.70
2018-12-19T08:04:52.955Z,93.15
2018-12-19T08:07:22.021Z,93.86
2018-12-19T08:09:51.223Z,93.01
2018-12-19T08:12:20.292Z,93.26
2018-12-19T08:14:51.303Z,93.95
2018-12-19T08:17:21.762Z,93.27
2018-12-19T08:19:51.261Z,93.42
2018-12-19T08:22:20.259Z,93.57
2018-12-19T08:24:49.241Z,93.17
2018-12-19T08:27:18.295Z,93.13
2018-12-19T08:29:47.282Z,92.43
2018-12-19T08:32:16.248Z,93.09
2018-12-19T08:34:45.437Z,92.53
2018-12-19T08:37:14.488Z,92.91
2018-12-19T08:39:43.523Z,92.79
2018-12-19T08:42:12.486Z,93.34
2018-12-19T08:44:41.460Z,93.08
2018-12-19T08:47:10.431Z,93.05
2018-12-19T08:49:39.425Z,92.46
2018-12-19T08:52:08.378Z,92.75
2018-12-19T08:54:37.570Z,92.65
2018-12-19T08:57:06.495Z,92.75
2018-12-19T08:59:35.491Z,93.49
2018-12-19T09:02:04.487Z,93.34
2018-12-19T09:04:33.445Z,93.55
2018-12-19T09:07:02.385Z,93.89
2018-12-19T09:09:31.879Z,93.39
2018-12-19T09:12:00.881Z,94.14
2018-12-19T09:14:30.858Z,93.97
2018-12-19T09:16:59.855Z,93.32
2018-12-19T09:19:28.896Z,93.81
2018-12-19T09:21:58.052Z,93.99
2018-12-19T09:24:27.189Z,93.88
2018-12-19T09:26:56.133Z,93.87
2018-12-19T09:29:25.605Z,93.89
2018-12-19T09:31:54.668Z,94.13
2018-12-19T09:34:23.657Z,94.19
2018-12-19T09:36:52.650Z,94.67
2018-12-19T09:39:21.621Z,94.48
2018-12-19T09:41:50.595Z,94.39
2018-12-19T09:44:19.565Z,94.44
2018-12-19T09:46:48.769Z,94.52
2018-12-19T09:49:17.767Z,94.21
2018-12-19T09:51:46.849Z,94.15
2018-12-19T09:54:15.868Z,94.94
2018-12-19T09:56:44.930Z,94.54
2018-12-19T09:59:14.511Z,94.41
2018-12-19T10:01:43.524Z,94.24
2018-12-19T10:04:12.626Z,94.64
2018-12-19T10:06:41.860Z,94.96
2018-12-19T10:09:14.847Z,94.57
2018-12-19T10:11:41.783Z,94.30
2018-12-19T10:14:10.721Z,95.10
2018-12-19T10:16:39.795Z,95.09
2018-12-19T10:19:08.893Z,95.26
2018-12-19T10:21:37.874Z,95.19
2018-12-19T10:24:06.868Z,95.13
2018-12-19T10:26:35.841Z,95.28
2018-12-19T10:29:04.841Z,94.91
2018-12-19T10:31:33.818Z,94.68
2018-12-19T10:34:02.826Z,95.50
2018-12-19T10:36:38.244Z,95.58
2018-12-19T10:39:16.031Z,96.25
2018-12-19T10:41:45.566Z,95.79
2018-12-19T10:44:14.875Z,95.60
2018-12-19T10:46:44.000Z,95.49
2018-12-19T10:49:13.062Z,96.13
2018-12-19T10:51:42.060Z,96.50
2018-12-19T10:54:11.122Z,96.58
2018-12-19T10:56:40.253Z,95.92
2018-12-19T10:59:09.247Z,96.27
2018-12-19T11:01:38.255Z,96.69
2018-12-19T11:04:07.242Z,96.52
2018-12-19T11:06:36.226Z,96.86
2018-12-19T11:09:07.191Z,96.38
2018-12-19T11:11:36.195Z,96.92
2018-12-19T11:14:05.144Z,96.71
2018-12-19T11:16:34.146Z,96.94
2018-12-19T11:19:03.077Z,97.08
2018-12-19T11:21:32.038Z,96.84
2018-12-19T11:24:01.443Z,97.02
2018-12-19T11:26:30.804Z,96.55
2018-12-19T11:28:59.761Z,96.69
2018-12-19T11:31:28.788Z,96.88
2018-12-19T11:33:57.963Z,96.64
2018-12-19T11:36:26.929Z,96.95
2018-12-19T11:38:56.047Z,97.41
2018-12-19T11:41:25.046Z,96.78
2018-12-19T11:43:54.034Z,96.65
2018-12-19T11:46:23.012Z,96.57
2018-12-19T11:48:52.186Z,96.64
2018-12-19T11:51:21.178Z,96.60
2018-12-19T11:53:50.149Z,96.82
2018-12-19T11:56:19.123Z,96.51
2018-12-19T11:58:48.119Z,97.07
2018-12-19T12:01:17.059Z,96.19
2018-12-19T12:03:46.081Z,96.66
2018-12-19T12:06:15.031Z,96.89
2018-12-19T12:08:44.045Z,96.85
2018-12-19T12:11:13.037Z,96.51
2018-12-19T12:13:42.677Z,96.58
2018-12-19T12:16:11.862Z,96.57
2018-12-19T12:18:40.759Z,96.94
2018-12-19T12:21:09.718Z,97.31
2018-12-19T12:23:38.681Z,96.58
2018-12-19T12:26:07.558Z,96.70
2018-12-19T12:28:36.568Z,96.51
2018-12-19T12:31:05.732Z,96.80
2018-12-19T12:33:34.647Z,96.74
2018-12-19T12:36:03.619Z,97.10
2018-12-19T12:38:34.170Z,97.38
2018-12-19T12:41:03.294Z,97.31
2018-12-19T12:43:32.235Z,96.47
2018-12-19T12:46:01.226Z,97.13
2018-12-19T12:48:30.140Z,97.18
2018-12-19T12:50:59.126Z,97.48
2018-12-19T12:53:28.043Z,97.37
2018-12-19T12:55:56.953Z,97.47
2018-12-19T12:58:25.852Z,97.30
2018-12-19T13:00:54.785Z,97.01
2018-12-19T13:03:23.719Z,96.84
2018-12-19T13:05:52.709Z,97.10
2018-12-19T13:08:21.918Z,97.23
2018-12-19T13:10:50.821Z,97.66
2018-12-19T13:13:19.773Z,96.94
2018-12-19T13:15:48.681Z,96.80
2018-12-19T13:18:17.564Z,97.64
2018-12-19T13:20:46.647Z,97.36
2018-12-19T13:23:15.677Z,97.63
2018-12-19T13:25:44.623Z,97.04
2018-12-19T13:28:13.756Z,97.94
2018-12-19T13:30:42.742Z,98.07
2018-12-19T13:33:11.806Z,97.57
2018-12-19T13:35:40.838Z,97.17
2018-12-19T13:38:09.766Z,97.26
2018-12-19T13:40:38.705Z,97.33
2018-12-19T13:43:07.645Z,97.02
2018-12-19T13:45:36.594Z,97.32
2018-12-19T13:48:05.564Z,96.70
2018-12-19T13:50:34.485Z,97.09
2018-12-19T13:53:03.536Z,96.78
2018-12-19T13:55:32.478Z,96.83
2018-12-19T13:58:07.033Z,96.93
2018-12-19T14:00:32.347Z,96.47
2018-12-19T14:03:01.272Z,96.06
2018-12-19T14:05:30.195Z,96.30
2018-12-19T14:07:59.194Z,95.88
2018-12-19T14:10:28.083Z,96.54
2018-12-19T14:12:57.146Z,95.66
2018-12-19T14:15:26.088Z,96.25
2018-12-19T14:17:54.985Z,95.50
2018-12-19T14:20:23.884Z,95.67
2018-12-19T14:22:52.794Z,94.80
2018-12-19T14:25:21.707Z,95.07
2018-12-19T14:27:50.645Z,95.34
2018-12-19T14:30:19.551Z,95.45
2018-12-19T14:32:48.462Z,95.48
2018-12-19T14:35:17.368Z,94.67
2018-12-19T14:37:46.304Z,94.90
2018-12-19T14:40:15.276Z,94.75
2018-12-19T14:42:44.226Z,95.54
2018-12-19T14:45:13.253Z,95.57
2018-12-19T14:47:42.378Z,95.45
2018-12-19T14:50:11.277Z,96.08
2018-12-19T14:52:40.240Z,96.11
2018-12-19T14:55:09.161Z,96.17
2018-12-19T14:57:38.262Z,95.87
2018-12-19T15:00:08.576Z,96.24
2018-12-19T15:02:37.514Z,96.37
2018-12-19T15:05:06.531Z,96.72
2018-12-19T15:07:35.450Z,96.48
2018-12-19T15:10:05.006Z,96.20
2018-12-19T15:12:34.027Z,96.75
2018-12-19T15:15:03.072Z,97.21
2018-12-19T15:17:31.956Z,97.12
2018-12-19T15:20:00.919Z,96.49
2018-12-19T15:22:30.253Z,97.39
2018-12-19T15:24:59.181Z,97.17
2018-12-19T15:27:28.077Z,97.83
2018-12-19T15:29:57.003Z,97.32
2018-12-19T15:32:25.893Z,98.13
2018-12-19T15:34:54.846Z,97.87
2018-12-19T15:37:23.733Z,98.13
2018-12-19T15:39:52.636Z,98.04
2018-12-19T15:42:21.594Z,97.59
2018-12-19T15:44:50.501Z,97.02
2018-12-19T15:47:19.493Z,97.38
2018-12-19T15:49:48.391Z,97.68
2018-12-19T15:52:17.358Z,97.57
2018-12-19T15:54:46.355Z,97.70
2018-12-19T15:57:15.300Z,97.65
2018-12-19T15:59:44.207Z,97.83
2018-12-19T16:02:13.266Z,97.10
2018-12-19T16:04:42.236Z,97.92
2018-12-19T16:07:11.123Z,97.84
2018-12-19T16:09:40.096Z,96.91
2018-12-19T16:12:09.481Z,97.59
2018-12-19T16:14:38.399Z,97.17
2018-12-19T16:17:07.288Z,96.94
2018-12-19T16:19:36.183Z,97.24
2018-12-19T16:22:05.229Z,97.11
2018-12-19T16:24:34.136Z,96.77
2018-12-19T16:27:03.030Z,96.43
2018-12-19T16:29:31.965Z,96.89
2018-12-19T16:32:01.790Z,96.22
2018-12-19T16:34:30.686Z,96.71
2018-12-19T16:37:00.624Z,96.44
2018-12-19T16:39:29.614Z,96.36
2018-12-19T16:41:58.560Z,96.49
2018-12-19T16:44:27.546Z,96.44
2018-12-19T16:46:56.447Z,96.31
2018-12-19T16:49:25.369Z,95.70
2018-12-19T16:51:54.253Z,95.44
2018-12-19T16:54:23.130Z,95.41
2018-12-19T16:56:52.081Z,95.39
2018-12-19T16:59:20.967Z,95.19
2018-12-19T17:01:49.966Z,95.49
2018-12-19T17:04:18.937Z,95.26
2018-12-19T17:06:47.931Z,95.24
2018-12-19T17:09:16.915Z,95.09
2018-12-19T17:11:45.814Z,95.40
2018-12-19T17:14:14.707Z,95.61
2018-12-19T17:16:43.605Z,96.44
2018-12-19T17:19:12.501Z,96.55
2018-12-19T17:21:41.479Z,95.95
2018-12-19T17:24:10.417Z,96.63
2018-12-19T17:26:39.326Z,95.98
2018-12-19T17:29:08.264Z,96.36
2018-12-19T17:31:37.508Z,96.11
2018-12-19T17:34:06.418Z,95.99
2018-12-19T17:36:35.420Z,95.76
2018-12-19T17:39:06.309Z,95.70
2018-12-19T17:41:35.259Z,96.33
2018-12-19T17:44:04.185Z,95.78
2018-12-19T17:46:33.077Z,95.48
2018-12-19T17:49:02.022Z,95.21
2018-12-19T17:51:30.923Z,94.96
2018-12-19T17:53:59.999Z,95.16
2018-12-19T17:56:28.902Z,94.25
2018-12-19T17:58:57.792Z,94.50
2018-12-19T18:01:26.870Z,95.10
2018-12-19T18:03:55.790Z,95.57
2018-12-19T18:06:24.673Z,96.31
2018-12-19T18:08:53.873Z,95.98
2018-12-19T18:11:22.779Z,96.03
2018-12-19T18:13:51.943Z,95.65
2018-12-19T18:16:21.133Z,95.53
2018-12-19T18:18:50.040Z,96.32
2018-12-19T18:21:18.906Z,95.94
2018-12-19T18:23:47.923Z,96.20
2018-12-19T18:26:16.791Z,95.79
2018-12-19T18:28:45.690Z,95.71
2018-12-19T18:31:14.884Z,95.21
2018-12-19T18:33:43.801Z,95.13
2018-12-19T18:36:12.868Z,95.38
2018-12-19T18:38:46.047Z,94.97
2018-12-19T18:41:15.196Z,94.92
2018-12-19T18:43:44.204Z,95.06
2018-12-19T18:46:14.130Z,95.15
2018-12-19T18:48:43.073Z,94.91
2018-12-19T18:51:11.974Z,95.69
2018-12-19T18:53:40.837Z,95.34
2018-12-19T18:56:09.855Z,96.74
2018-12-19T18:58:39.340Z,95.73
2018-12-19T19:01:09.510Z,96.01
2018-12-19T19:03:44.818Z,95.76
2018-12-19T19:06:14.227Z,95.38
2018-12-19T19:08:44.176Z,94.54
2018-12-19T19:11:13.149Z,94.56
2018-12-19T19:13:42.141Z,94.79
2018-12-19T19:16:11.029Z,95.10
2018-12-19T19:18:39.924Z,95.21
2018-12-19T19:21:08.917Z,94.81
2018-12-19T19:23:37.846Z,94.34
2018-12-19T19:26:06.841Z,94.68
2018-12-19T19:28:35.734Z,94.67
2018-12-19T19:31:04.622Z,94.47
2018-12-19T19:33:33.582Z,94.47
2018-12-19T19:36:02.598Z,95.20
2018-12-19T19:38:31.766Z,95.29
2018-12-19T19:43:53.039Z,95.86
2018-12-19T19:46:22.026Z,95.41
2018-12-19T19:48:50.938Z,95.61
2018-12-19T19:51:19.881Z,95.75
2018-12-19T19:53:48.811Z,95.67
2018-12-19T19:56:17.813Z,95.50
2018-12-19T19:58:46.772Z,95.35
2018-12-19T20:01:15.627Z,96.00
2018-12-19T20:03:44.777Z,95.77
2018-12-19T20:06:13.715Z,96.10
2018-12-19T20:08:42.710Z,96.52
2018-12-19T20:11:11.831Z,96.30
2018-12-19T20:13:41.780Z,95.90
2018-12-19T20:16:12.782Z,95.64
2018-12-19T20:18:41.648Z,95.93
2018-12-19T20:21:10.548Z,95.70
2018-12-19T20:23:39.560Z,95.48
2018-12-19T20:26:08.455Z,95.17
2018-12-19T20:28:37.443Z,95.29
2018-12-19T20:31:06.503Z,95.19
2018-12-19T20:33:35.437Z,95.29
2018-12-19T20:36:04.423Z,94.90
2018-12-19T20:38:43.686Z,96.20
2018-12-19T20:41:17.868Z,96.72
2018-12-19T20:43:47.893Z,96.04
2018-12-19T20:46:16.861Z,96.41
2018-12-19T20:48:45.874Z,96.10
2018-12-19T20:51:15.112Z,95.59
2018-12-19T20:53:44.089Z,95.79
2018-12-19T20:56:13.129Z,95.38
2018-12-19T20:58:43.309Z,95.82
2018-12-19T21:01:12.287Z,95.67
2018-12-19T21:03:41.173Z,96.11
2018-12-19T21:06:10.214Z,95.97
2018-12-19T21:08:39.293Z,96.38
2018-12-19T21:11:08.335Z,95.57
2018-12-19T21:13:37.474Z,95.46
2018-12-19T21:16:07.157Z,94.97
2018-12-19T21:18:41.532Z,95.05
2018-12-19T21:21:10.486Z,95.73
2018-12-19T21:23:39.386Z,94.81
2018-12-19T21:26:08.279Z,95.01
2018-12-19T21:28:37.239Z,95.05
2018-12-19T21:31:06.175Z,94.97
2018-12-19T21:33:35.113Z,95.08
2018-12-19T21:36:04.036Z,94.77
2018-12-19T21:38:32.976Z,94.51
2018-12-19T21:41:01.924Z,94.81
2018-12-19T21:43:30.843Z,94.97
2018-12-19T21:45:59.737Z,95.75
2018-12-19T21:48:28.889Z,95.57
2018-12-19T21:50:57.790Z,95.63
2018-12-19T21:53:26.843Z,96.07
2018-12-19T21:55:55.852Z,96.72
2018-12-19T21:58:25.054Z,96.87
2018-12-19T22:00:53.995Z,96.18
2018-12-19T22:03:22.889Z,96.00
2018-12-19T22:05:51.956Z,96.02
2018-12-19T22:08:20.951Z,95.66
2018-12-19T22:10:49.918Z,95.97
2018-12-19T22:13:18.905Z,95.87
2018-12-19T22:15:47.854Z,95.58
2018-12-19T22:18:22.163Z,95.67
2018-12-19T22:20:51.534Z,95.98
2018-12-19T22:23:20.594Z,95.71
2018-12-19T22:25:49.506Z,96.29
2018-12-19T22:28:18.406Z,95.95
2018-12-19T22:30:47.323Z,95.57
2018-12-19T22:33:16.240Z,95.96
2018-12-19T22:35:45.170Z,95.52
2018-12-19T22:38:14.069Z,95.77
2018-12-19T22:40:43.114Z,96.19
2018-12-19T22:43:12.172Z,96.43
2018-12-19T22:45:41.069Z,95.85
2018-12-19T22:48:10.225Z,95.79
2018-12-19T22:50:39.169Z,96.20
2018-12-19T22:53:08.390Z,96.46
2018-12-19T22:55:37.470Z,95.71
2018-12-19T22:58:06.440Z,96.28
2018-12-19T23:00:40.673Z,96.43
2018-12-19T23:03:09.772Z,95.68
2018-12-19T23:05:44.206Z,96.06
2018-12-19T23:08:13.465Z,96.31
2018-12-19T23:10:42.414Z,95.96
2018-12-19T23:13:11.401Z,95.61
2018-12-19T23:15:40.458Z,96.44
2018-12-19T23:18:14.612Z,95.68
2018-12-19T23:20:43.629Z,96.02
2018-12-19T23:23:14.301Z,95.40
2018-12-19T23:25:43.478Z,95.34
2018-12-19T23:28:19.392Z,95.47
2018-12-19T23:30:52.372Z,95.02
2018-12-19T23:33:22.743Z,94.70
2018-12-19T23:35:51.917Z,94.26
2018-12-19T23:38:20.906Z,94.88
2018-12-19T23:40:50.062Z,94.64
2018-12-19T23:43:19.034Z,94.41
2018-12-19T23:45:48.069Z,94.55
2018-12-19T23:50:50.693Z,94.06
2018-12-19T23:53:19.780Z,94.09
2018-12-19T23:55:48.750Z,94.95
2018-12-19T23:58:17.653Z,94.71
